sensor_id;sensor_type;location;lat;lon;timestamp;temperature;humidity
12901;DHT22;6518;50.930;5.344;2023-06-10T00:00:24;23.00;60.70
12901;DHT22;6518;50.930;5.344;2023-06-10T00:02:51;23.00;61.70
12901;DHT22;6518;50.930;5.344;2023-06-10T00:05:18;22.90;61.10
12901;DHT22;6518;50.930;5.344;2023-06-10T00:07:47;23.00;61.20
12901;DHT22;6518;50.930;5.344;2023-06-10T00:10:15;22.90;61.30
12901;DHT22;6518;50.930;5.344;2023-06-10T00:12:43;22.90;61.40
12901;DHT22;6518;50.930;5.344;2023-06-10T00:15:10;22.90;61.50
12901;DHT22;6518;50.930;5.344;2023-06-10T00:17:37;22.70;61.90
12901;DHT22;6518;50.930;5.344;2023-06-10T00:20:06;22.70;62.20
12901;DHT22;6518;50.930;5.344;2023-06-10T00:22:34;22.70;62.30
12901;DHT22;6518;50.930;5.344;2023-06-10T00:25:01;22.70;62.30
12901;DHT22;6518;50.930;5.344;2023-06-10T00:27:29;22.70;62.50
12901;DHT22;6518;50.930;5.344;2023-06-10T00:30:02;22.70;62.60
12901;DHT22;6518;50.930;5.344;2023-06-10T00:32:32;22.50;62.90
12901;DHT22;6518;50.930;5.344;2023-06-10T00:34:59;22.50;63.10
12901;DHT22;6518;50.930;5.344;2023-06-10T00:37:26;22.50;63.30
12901;DHT22;6518;50.930;5.344;2023-06-10T00:39:52;22.40;63.40
12901;DHT22;6518;50.930;5.344;2023-06-10T00:42:19;22.30;64.50
12901;DHT22;6518;50.930;5.344;2023-06-10T00:44:48;22.30;64.00
12901;DHT22;6518;50.930;5.344;2023-06-10T00:47:16;22.30;64.00
12901;DHT22;6518;50.930;5.344;2023-06-10T00:49:43;22.20;64.10
12901;DHT22;6518;50.930;5.344;2023-06-10T00:52:11;22.30;64.20
12901;DHT22;6518;50.930;5.344;2023-06-10T00:54:38;22.30;64.20
12901;DHT22;6518;50.930;5.344;2023-06-10T00:57:06;22.30;64.20
12901;DHT22;6518;50.930;5.344;2023-06-10T00:59:33;22.20;64.40
12901;DHT22;6518;50.930;5.344;2023-06-10T01:02:00;22.30;64.50
12901;DHT22;6518;50.930;5.344;2023-06-10T01:04:29;22.20;64.60
12901;DHT22;6518;50.930;5.344;2023-06-10T01:07:02;22.20;64.70
12901;DHT22;6518;50.930;5.344;2023-06-10T01:09:38;22.10;65.00
12901;DHT22;6518;50.930;5.344;2023-06-10T01:12:12;22.20;65.00
12901;DHT22;6518;50.930;5.344;2023-06-10T01:14:43;22.10;65.20
12901;DHT22;6518;50.930;5.344;2023-06-10T01:17:11;22.10;65.30
12901;DHT22;6518;50.930;5.344;2023-06-10T01:19:39;22.00;65.60
12901;DHT22;6518;50.930;5.344;2023-06-10T01:22:10;22.00;65.90
12901;DHT22;6518;50.930;5.344;2023-06-10T01:24:41;22.00;66.00
12901;DHT22;6518;50.930;5.344;2023-06-10T01:27:12;22.00;66.00
12901;DHT22;6518;50.930;5.344;2023-06-10T01:29:45;21.90;66.40
12901;DHT22;6518;50.930;5.344;2023-06-10T01:32:18;21.80;66.70
12901;DHT22;6518;50.930;5.344;2023-06-10T01:34:45;21.80;66.90
12901;DHT22;6518;50.930;5.344;2023-06-10T01:37:18;21.80;67.00
12901;DHT22;6518;50.930;5.344;2023-06-10T01:39:49;21.80;67.30
12901;DHT22;6518;50.930;5.344;2023-06-10T01:42:16;21.80;67.10
12901;DHT22;6518;50.930;5.344;2023-06-10T01:44:43;21.80;67.00
12901;DHT22;6518;50.930;5.344;2023-06-10T01:47:10;21.80;67.30
12901;DHT22;6518;50.930;5.344;2023-06-10T01:49:37;21.80;67.40
12901;DHT22;6518;50.930;5.344;2023-06-10T01:52:05;21.80;67.60
12901;DHT22;6518;50.930;5.344;2023-06-10T01:54:33;21.80;67.50
12901;DHT22;6518;50.930;5.344;2023-06-10T01:57:01;21.80;67.50
12901;DHT22;6518;50.930;5.344;2023-06-10T01:59:28;21.90;67.50
12901;DHT22;6518;50.930;5.344;2023-06-10T02:01:55;21.80;67.70
12901;DHT22;6518;50.930;5.344;2023-06-10T02:04:22;21.60;68.10
12901;DHT22;6518;50.930;5.344;2023-06-10T02:06:48;21.60;68.50
12901;DHT22;6518;50.930;5.344;2023-06-10T02:09:16;21.50;68.80
12901;DHT22;6518;50.930;5.344;2023-06-10T02:11:45;21.50;69.10
12901;DHT22;6518;50.930;5.344;2023-06-10T02:14:12;21.40;69.40
12901;DHT22;6518;50.930;5.344;2023-06-10T02:16:38;21.40;69.60
12901;DHT22;6518;50.930;5.344;2023-06-10T02:19:06;21.30;69.70
12901;DHT22;6518;50.930;5.344;2023-06-10T02:21:33;21.40;69.90
12901;DHT22;6518;50.930;5.344;2023-06-10T02:24:00;21.40;69.90
12901;DHT22;6518;50.930;5.344;2023-06-10T02:26:27;21.30;69.80
12901;DHT22;6518;50.930;5.344;2023-06-10T02:28:56;21.30;70.00
12901;DHT22;6518;50.930;5.344;2023-06-10T02:31:23;21.40;70.00
12901;DHT22;6518;50.930;5.344;2023-06-10T02:33:50;21.40;69.90
12901;DHT22;6518;50.930;5.344;2023-06-10T02:36:17;21.40;69.80
12901;DHT22;6518;50.930;5.344;2023-06-10T02:38:44;21.30;70.20
12901;DHT22;6518;50.930;5.344;2023-06-10T02:41:11;21.30;70.50
12901;DHT22;6518;50.930;5.344;2023-06-10T02:43:38;21.20;70.70
12901;DHT22;6518;50.930;5.344;2023-06-10T02:46:06;21.10;71.20
12901;DHT22;6518;50.930;5.344;2023-06-10T02:48:40;21.00;71.50
12901;DHT22;6518;50.930;5.344;2023-06-10T02:51:08;20.90;72.70
12901;DHT22;6518;50.930;5.344;2023-06-10T02:53:35;20.90;72.10
12901;DHT22;6518;50.930;5.344;2023-06-10T02:56:02;20.90;73.00
12901;DHT22;6518;50.930;5.344;2023-06-10T02:58:29;20.90;73.10
12901;DHT22;6518;50.930;5.344;2023-06-10T03:00:56;20.90;72.20
12901;DHT22;6518;50.930;5.344;2023-06-10T03:03:25;20.90;72.10
12901;DHT22;6518;50.930;5.344;2023-06-10T03:05:53;20.90;72.40
12901;DHT22;6518;50.930;5.344;2023-06-10T03:08:20;21.00;72.20
12901;DHT22;6518;50.930;5.344;2023-06-10T03:10:47;21.00;72.10
12901;DHT22;6518;50.930;5.344;2023-06-10T03:13:13;21.00;72.00
12901;DHT22;6518;50.930;5.344;2023-06-10T03:15:41;21.00;72.10
12901;DHT22;6518;50.930;5.344;2023-06-10T03:18:08;20.80;72.60
12901;DHT22;6518;50.930;5.344;2023-06-10T03:20:36;20.80;73.00
12901;DHT22;6518;50.930;5.344;2023-06-10T03:23:04;20.70;73.40
12901;DHT22;6518;50.930;5.344;2023-06-10T03:25:32;20.50;73.90
12901;DHT22;6518;50.930;5.344;2023-06-10T03:27:59;20.40;75.20
12901;DHT22;6518;50.930;5.344;2023-06-10T03:30:27;20.40;74.60
12901;DHT22;6518;50.930;5.344;2023-06-10T03:32:54;20.40;74.90
12901;DHT22;6518;50.930;5.344;2023-06-10T03:35:21;20.40;75.10
12901;DHT22;6518;50.930;5.344;2023-06-10T03:37:49;20.40;75.10
12901;DHT22;6518;50.930;5.344;2023-06-10T03:40:16;20.30;75.10
12901;DHT22;6518;50.930;5.344;2023-06-10T03:42:43;20.30;75.30
12901;DHT22;6518;50.930;5.344;2023-06-10T03:45:10;20.30;75.40
12901;DHT22;6518;50.930;5.344;2023-06-10T03:47:38;20.40;75.40
12901;DHT22;6518;50.930;5.344;2023-06-10T03:50:07;20.40;75.50
12901;DHT22;6518;50.930;5.344;2023-06-10T03:52:34;20.40;75.60
12901;DHT22;6518;50.930;5.344;2023-06-10T03:55:04;20.30;75.90
12901;DHT22;6518;50.930;5.344;2023-06-10T03:57:31;20.30;76.10
12901;DHT22;6518;50.930;5.344;2023-06-10T03:59:58;20.40;75.90
12901;DHT22;6518;50.930;5.344;2023-06-10T04:02:25;20.40;75.80
12901;DHT22;6518;50.930;5.344;2023-06-10T04:04:52;20.40;76.10
12901;DHT22;6518;50.930;5.344;2023-06-10T04:07:19;20.30;76.20
12901;DHT22;6518;50.930;5.344;2023-06-10T04:09:46;20.30;76.50
12901;DHT22;6518;50.930;5.344;2023-06-10T04:12:15;20.30;76.70
12901;DHT22;6518;50.930;5.344;2023-06-10T04:14:42;20.30;76.80
12901;DHT22;6518;50.930;5.344;2023-06-10T04:17:09;20.30;77.90
12901;DHT22;6518;50.930;5.344;2023-06-10T04:19:36;20.30;77.20
12901;DHT22;6518;50.930;5.344;2023-06-10T04:22:03;20.40;77.00
12901;DHT22;6518;50.930;5.344;2023-06-10T04:24:30;20.40;77.20
12901;DHT22;6518;50.930;5.344;2023-06-10T04:26:57;20.30;77.30
12901;DHT22;6518;50.930;5.344;2023-06-10T04:29:25;20.40;77.20
12901;DHT22;6518;50.930;5.344;2023-06-10T04:31:52;20.50;77.00
12901;DHT22;6518;50.930;5.344;2023-06-10T04:34:19;20.60;76.70
12901;DHT22;6518;50.930;5.344;2023-06-10T04:36:46;20.70;76.60
12901;DHT22;6518;50.930;5.344;2023-06-10T04:39:13;20.70;76.50
12901;DHT22;6518;50.930;5.344;2023-06-10T04:41:42;20.70;76.60
12901;DHT22;6518;50.930;5.344;2023-06-10T04:44:09;20.80;76.60
12901;DHT22;6518;50.930;5.344;2023-06-10T04:46:37;20.80;76.50
12901;DHT22;6518;50.930;5.344;2023-06-10T04:49:04;20.80;76.60
12901;DHT22;6518;50.930;5.344;2023-06-10T04:51:32;20.80;76.60
12901;DHT22;6518;50.930;5.344;2023-06-10T04:53:59;20.80;76.50
12901;DHT22;6518;50.930;5.344;2023-06-10T04:56:28;20.80;76.70
12901;DHT22;6518;50.930;5.344;2023-06-10T04:58:55;20.90;76.60
12901;DHT22;6518;50.930;5.344;2023-06-10T05:01:23;20.90;76.50
12901;DHT22;6518;50.930;5.344;2023-06-10T05:03:51;21.10;76.30
12901;DHT22;6518;50.930;5.344;2023-06-10T05:06:18;21.10;75.90
12901;DHT22;6518;50.930;5.344;2023-06-10T05:08:45;21.10;76.00
12901;DHT22;6518;50.930;5.344;2023-06-10T05:11:12;21.20;76.10
12901;DHT22;6518;50.930;5.344;2023-06-10T05:13:39;21.30;75.90
12901;DHT22;6518;50.930;5.344;2023-06-10T05:16:06;21.30;75.60
12901;DHT22;6518;50.930;5.344;2023-06-10T05:18:33;21.50;75.20
12901;DHT22;6518;50.930;5.344;2023-06-10T05:21:02;21.50;75.00
12901;DHT22;6518;50.930;5.344;2023-06-10T05:23:29;21.40;75.30
12901;DHT22;6518;50.930;5.344;2023-06-10T05:25:56;21.40;75.80
12901;DHT22;6518;50.930;5.344;2023-06-10T05:28:23;21.30;75.90
12901;DHT22;6518;50.930;5.344;2023-06-10T05:30:51;21.40;75.80
12901;DHT22;6518;50.930;5.344;2023-06-10T05:33:18;21.50;75.60
12901;DHT22;6518;50.930;5.344;2023-06-10T05:35:45;21.60;75.20
12901;DHT22;6518;50.930;5.344;2023-06-10T05:38:13;21.70;75.10
12901;DHT22;6518;50.930;5.344;2023-06-10T05:40:40;21.60;75.00
12901;DHT22;6518;50.930;5.344;2023-06-10T05:43:07;21.70;75.10
12901;DHT22;6518;50.930;5.344;2023-06-10T05:45:35;21.70;74.80
12901;DHT22;6518;50.930;5.344;2023-06-10T05:48:02;21.70;74.80
12901;DHT22;6518;50.930;5.344;2023-06-10T05:50:29;21.70;74.80
12901;DHT22;6518;50.930;5.344;2023-06-10T05:52:56;21.80;74.90
12901;DHT22;6518;50.930;5.344;2023-06-10T05:55:25;21.80;74.90
12901;DHT22;6518;50.930;5.344;2023-06-10T05:57:58;21.90;74.50
12901;DHT22;6518;50.930;5.344;2023-06-10T06:00:25;22.10;74.30
12901;DHT22;6518;50.930;5.344;2023-06-10T06:02:52;22.10;73.90
12901;DHT22;6518;50.930;5.344;2023-06-10T06:05:19;22.10;73.90
12901;DHT22;6518;50.930;5.344;2023-06-10T06:07:46;22.10;73.90
12901;DHT22;6518;50.930;5.344;2023-06-10T06:10:13;22.10;73.90
12901;DHT22;6518;50.930;5.344;2023-06-10T06:12:41;22.20;73.40
12901;DHT22;6518;50.930;5.344;2023-06-10T06:15:09;22.30;73.40
12901;DHT22;6518;50.930;5.344;2023-06-10T06:17:37;22.50;73.20
12901;DHT22;6518;50.930;5.344;2023-06-10T06:20:05;22.60;72.70
12901;DHT22;6518;50.930;5.344;2023-06-10T06:22:32;22.60;71.80
12901;DHT22;6518;50.930;5.344;2023-06-10T06:24:58;22.60;71.10
12901;DHT22;6518;50.930;5.344;2023-06-10T06:27:25;22.70;70.90
12901;DHT22;6518;50.930;5.344;2023-06-10T06:29:53;22.70;70.90
12901;DHT22;6518;50.930;5.344;2023-06-10T06:32:20;22.80;70.30
12901;DHT22;6518;50.930;5.344;2023-06-10T06:34:48;22.80;68.70
12901;DHT22;6518;50.930;5.344;2023-06-10T06:37:20;22.90;68.70
12901;DHT22;6518;50.930;5.344;2023-06-10T06:39:47;23.00;68.10
12901;DHT22;6518;50.930;5.344;2023-06-10T06:42:14;23.10;67.70
12901;DHT22;6518;50.930;5.344;2023-06-10T06:44:41;23.10;67.50
12901;DHT22;6518;50.930;5.344;2023-06-10T06:47:10;23.20;67.10
12901;DHT22;6518;50.930;5.344;2023-06-10T06:49:37;23.30;67.00
12901;DHT22;6518;50.930;5.344;2023-06-10T06:52:04;23.40;67.00
12901;DHT22;6518;50.930;5.344;2023-06-10T06:54:31;23.50;67.20
12901;DHT22;6518;50.930;5.344;2023-06-10T06:56:58;23.60;66.80
12901;DHT22;6518;50.930;5.344;2023-06-10T06:59:25;23.70;66.90
12901;DHT22;6518;50.930;5.344;2023-06-10T07:01:52;23.70;66.30
12901;DHT22;6518;50.930;5.344;2023-06-10T07:04:21;23.70;65.80
12901;DHT22;6518;50.930;5.344;2023-06-10T07:06:48;23.70;66.00
12901;DHT22;6518;50.930;5.344;2023-06-10T07:09:15;23.80;66.10
12901;DHT22;6518;50.930;5.344;2023-06-10T07:11:41;23.80;65.80
12901;DHT22;6518;50.930;5.344;2023-06-10T07:14:08;23.80;65.10
12901;DHT22;6518;50.930;5.344;2023-06-10T07:16:35;23.80;64.90
12901;DHT22;6518;50.930;5.344;2023-06-10T07:19:02;23.90;64.80
12901;DHT22;6518;50.930;5.344;2023-06-10T07:21:31;24.00;64.40
12901;DHT22;6518;50.930;5.344;2023-06-10T07:23:59;24.00;64.00
12901;DHT22;6518;50.930;5.344;2023-06-10T07:26:26;24.10;64.30
12901;DHT22;6518;50.930;5.344;2023-06-10T07:28:53;24.10;64.30
12901;DHT22;6518;50.930;5.344;2023-06-10T07:31:20;24.20;64.10
12901;DHT22;6518;50.930;5.344;2023-06-10T07:33:47;24.30;63.80
12901;DHT22;6518;50.930;5.344;2023-06-10T07:36:14;24.40;63.60
12901;DHT22;6518;50.930;5.344;2023-06-10T07:38:42;24.40;63.40
12901;DHT22;6518;50.930;5.344;2023-06-10T07:41:09;24.50;62.90
12901;DHT22;6518;50.930;5.344;2023-06-10T07:43:36;24.50;63.10
12901;DHT22;6518;50.930;5.344;2023-06-10T07:46:03;24.60;63.10
12901;DHT22;6518;50.930;5.344;2023-06-10T07:48:31;24.60;63.10
12901;DHT22;6518;50.930;5.344;2023-06-10T07:50:57;24.70;62.90
12901;DHT22;6518;50.930;5.344;2023-06-10T07:53:25;24.80;62.60
12901;DHT22;6518;50.930;5.344;2023-06-10T07:55:53;24.90;62.20
12901;DHT22;6518;50.930;5.344;2023-06-10T07:58:20;25.10;61.60
12901;DHT22;6518;50.930;5.344;2023-06-10T08:00:47;25.10;61.60
12901;DHT22;6518;50.930;5.344;2023-06-10T08:03:14;25.10;61.60
12901;DHT22;6518;50.930;5.344;2023-06-10T08:05:41;25.20;61.00
12901;DHT22;6518;50.930;5.344;2023-06-10T08:08:08;25.30;61.60
12901;DHT22;6518;50.930;5.344;2023-06-10T08:10:35;25.30;61.40
12901;DHT22;6518;50.930;5.344;2023-06-10T08:13:03;25.40;60.90
12901;DHT22;6518;50.930;5.344;2023-06-10T08:15:30;25.50;60.00
12901;DHT22;6518;50.930;5.344;2023-06-10T08:17:57;25.60;60.40
12901;DHT22;6518;50.930;5.344;2023-06-10T08:20:24;25.60;59.90
12901;DHT22;6518;50.930;5.344;2023-06-10T08:22:51;25.60;60.20
12901;DHT22;6518;50.930;5.344;2023-06-10T08:25:18;25.60;60.30
12901;DHT22;6518;50.930;5.344;2023-06-10T08:27:47;25.70;60.00
12901;DHT22;6518;50.930;5.344;2023-06-10T08:30:17;25.70;60.10
12901;DHT22;6518;50.930;5.344;2023-06-10T08:32:44;25.70;59.70
12901;DHT22;6518;50.930;5.344;2023-06-10T08:35:11;25.90;60.10
12901;DHT22;6518;50.930;5.344;2023-06-10T08:37:38;25.90;59.80
12901;DHT22;6518;50.930;5.344;2023-06-10T08:40:06;26.00;59.80
12901;DHT22;6518;50.930;5.344;2023-06-10T08:42:39;26.10;59.10
12901;DHT22;6518;50.930;5.344;2023-06-10T08:45:07;26.10;58.70
12901;DHT22;6518;50.930;5.344;2023-06-10T08:47:42;26.10;59.20
12901;DHT22;6518;50.930;5.344;2023-06-10T08:50:11;26.10;59.50
12901;DHT22;6518;50.930;5.344;2023-06-10T08:52:41;26.20;59.10
12901;DHT22;6518;50.930;5.344;2023-06-10T08:55:11;26.20;58.50
12901;DHT22;6518;50.930;5.344;2023-06-10T08:57:40;26.30;58.40
12901;DHT22;6518;50.930;5.344;2023-06-10T09:00:09;26.40;58.70
12901;DHT22;6518;50.930;5.344;2023-06-10T09:02:36;26.50;58.70
12901;DHT22;6518;50.930;5.344;2023-06-10T09:05:05;26.60;58.20
12901;DHT22;6518;50.930;5.344;2023-06-10T09:07:32;26.50;58.20
12901;DHT22;6518;50.930;5.344;2023-06-10T09:10:01;26.50;58.30
12901;DHT22;6518;50.930;5.344;2023-06-10T09:12:30;26.70;57.40
12901;DHT22;6518;50.930;5.344;2023-06-10T09:14:57;26.70;56.80
12901;DHT22;6518;50.930;5.344;2023-06-10T09:17:24;26.70;57.00
12901;DHT22;6518;50.930;5.344;2023-06-10T09:19:52;26.70;57.30
12901;DHT22;6518;50.930;5.344;2023-06-10T09:22:22;26.80;56.40
12901;DHT22;6518;50.930;5.344;2023-06-10T09:24:49;26.80;56.20
12901;DHT22;6518;50.930;5.344;2023-06-10T09:27:16;26.90;56.20
12901;DHT22;6518;50.930;5.344;2023-06-10T09:29:47;27.00;55.90
12901;DHT22;6518;50.930;5.344;2023-06-10T09:32:18;27.00;55.10
12901;DHT22;6518;50.930;5.344;2023-06-10T09:34:46;27.10;55.00
12901;DHT22;6518;50.930;5.344;2023-06-10T09:37:13;27.20;54.90
12901;DHT22;6518;50.930;5.344;2023-06-10T09:40:01;27.20;54.90
12901;DHT22;6518;50.930;5.344;2023-06-10T09:42:32;27.20;53.90
12901;DHT22;6518;50.930;5.344;2023-06-10T09:44:59;27.40;53.00
12901;DHT22;6518;50.930;5.344;2023-06-10T09:47:26;27.40;53.00
12901;DHT22;6518;50.930;5.344;2023-06-10T09:49:53;27.40;52.60
12901;DHT22;6518;50.930;5.344;2023-06-10T09:52:24;27.50;53.40
12901;DHT22;6518;50.930;5.344;2023-06-10T09:54:53;27.60;53.40
12901;DHT22;6518;50.930;5.344;2023-06-10T09:57:21;27.70;52.30
12901;DHT22;6518;50.930;5.344;2023-06-10T09:59:48;27.70;52.50
12901;DHT22;6518;50.930;5.344;2023-06-10T10:02:19;27.70;52.60
12901;DHT22;6518;50.930;5.344;2023-06-10T10:04:46;27.70;52.50
12901;DHT22;6518;50.930;5.344;2023-06-10T10:07:13;27.90;51.00
12901;DHT22;6518;50.930;5.344;2023-06-10T10:09:41;27.90;50.50
12901;DHT22;6518;50.930;5.344;2023-06-10T10:12:11;27.90;51.00
12901;DHT22;6518;50.930;5.344;2023-06-10T10:14:39;27.90;51.10
12901;DHT22;6518;50.930;5.344;2023-06-10T10:17:10;27.90;50.30
12901;DHT22;6518;50.930;5.344;2023-06-10T10:19:43;28.00;50.90
12901;DHT22;6518;50.930;5.344;2023-06-10T10:22:15;28.00;50.30
12901;DHT22;6518;50.930;5.344;2023-06-10T10:24:49;28.10;50.80
12901;DHT22;6518;50.930;5.344;2023-06-10T10:27:20;28.10;50.00
12901;DHT22;6518;50.930;5.344;2023-06-10T10:29:52;28.10;49.50
12901;DHT22;6518;50.930;5.344;2023-06-10T10:32:23;28.20;49.30
12901;DHT22;6518;50.930;5.344;2023-06-10T10:35:00;28.20;49.30
12901;DHT22;6518;50.930;5.344;2023-06-10T10:37:31;28.30;49.10
12901;DHT22;6518;50.930;5.344;2023-06-10T10:39:58;28.40;48.00
12901;DHT22;6518;50.930;5.344;2023-06-10T10:42:28;28.50;48.70
12901;DHT22;6518;50.930;5.344;2023-06-10T10:44:55;28.50;49.30
12901;DHT22;6518;50.930;5.344;2023-06-10T10:47:26;28.50;48.60
12901;DHT22;6518;50.930;5.344;2023-06-10T10:49:54;28.60;47.60
12901;DHT22;6518;50.930;5.344;2023-06-10T10:52:24;28.50;47.40
12901;DHT22;6518;50.930;5.344;2023-06-10T10:54:53;28.60;47.10
12901;DHT22;6518;50.930;5.344;2023-06-10T10:57:21;28.50;47.70
12901;DHT22;6518;50.930;5.344;2023-06-10T10:59:55;28.60;47.60
12901;DHT22;6518;50.930;5.344;2023-06-10T11:02:35;28.60;47.10
12901;DHT22;6518;50.930;5.344;2023-06-10T11:05:05;28.70;46.90
12901;DHT22;6518;50.930;5.344;2023-06-10T11:07:33;28.70;46.60
12901;DHT22;6518;50.930;5.344;2023-06-10T11:10:02;28.80;46.80
12901;DHT22;6518;50.930;5.344;2023-06-10T11:12:57;28.80;45.80
12901;DHT22;6518;50.930;5.344;2023-06-10T11:15:26;28.80;45.40
12901;DHT22;6518;50.930;5.344;2023-06-10T11:18:19;28.90;46.30
12901;DHT22;6518;50.930;5.344;2023-06-10T11:20:55;29.00;46.40
12901;DHT22;6518;50.930;5.344;2023-06-10T11:23:41;29.00;45.70
12901;DHT22;6518;50.930;5.344;2023-06-10T11:26:13;29.10;45.30
12901;DHT22;6518;50.930;5.344;2023-06-10T11:28:42;29.10;45.60
12901;DHT22;6518;50.930;5.344;2023-06-10T11:31:18;29.20;45.10
12901;DHT22;6518;50.930;5.344;2023-06-10T11:33:47;29.20;45.10
12901;DHT22;6518;50.930;5.344;2023-06-10T11:36:14;29.30;45.30
12901;DHT22;6518;50.930;5.344;2023-06-10T11:38:41;29.30;45.20
12901;DHT22;6518;50.930;5.344;2023-06-10T11:41:09;29.30;45.30
12901;DHT22;6518;50.930;5.344;2023-06-10T11:43:36;29.40;44.70
12901;DHT22;6518;50.930;5.344;2023-06-10T11:46:03;29.40;44.70
12901;DHT22;6518;50.930;5.344;2023-06-10T11:48:35;29.50;44.50
12901;DHT22;6518;50.930;5.344;2023-06-10T11:51:06;29.50;43.80
12901;DHT22;6518;50.930;5.344;2023-06-10T11:53:33;29.60;43.50
12901;DHT22;6518;50.930;5.344;2023-06-10T11:55:59;29.70;42.70
12901;DHT22;6518;50.930;5.344;2023-06-10T11:58:26;29.70;42.70
12901;DHT22;6518;50.930;5.344;2023-06-10T12:00:55;29.80;42.00
12901;DHT22;6518;50.930;5.344;2023-06-10T12:03:24;29.80;41.30
12901;DHT22;6518;50.930;5.344;2023-06-10T12:05:59;29.80;42.00
12901;DHT22;6518;50.930;5.344;2023-06-10T12:08:27;29.80;42.60
12901;DHT22;6518;50.930;5.344;2023-06-10T12:10:55;29.80;42.60
12901;DHT22;6518;50.930;5.344;2023-06-10T12:13:23;29.90;42.40
12901;DHT22;6518;50.930;5.344;2023-06-10T12:15:50;29.90;42.00
12901;DHT22;6518;50.930;5.344;2023-06-10T12:18:17;29.90;42.00
12901;DHT22;6518;50.930;5.344;2023-06-10T12:20:44;30.00;41.90
12901;DHT22;6518;50.930;5.344;2023-06-10T12:23:14;30.00;41.90
12901;DHT22;6518;50.930;5.344;2023-06-10T12:25:49;30.00;42.20
12901;DHT22;6518;50.930;5.344;2023-06-10T12:28:18;30.10;41.20
12901;DHT22;6518;50.930;5.344;2023-06-10T12:30:47;30.10;41.60
12901;DHT22;6518;50.930;5.344;2023-06-10T12:33:16;30.10;41.50
12901;DHT22;6518;50.930;5.344;2023-06-10T12:35:47;30.20;41.90
12901;DHT22;6518;50.930;5.344;2023-06-10T12:38:21;30.10;42.30
12901;DHT22;6518;50.930;5.344;2023-06-10T12:40:50;30.10;42.00
12901;DHT22;6518;50.930;5.344;2023-06-10T12:43:19;30.10;41.90
12901;DHT22;6518;50.930;5.344;2023-06-10T12:45:46;30.10;41.30
12901;DHT22;6518;50.930;5.344;2023-06-10T12:48:18;30.20;41.20
12901;DHT22;6518;50.930;5.344;2023-06-10T12:50:50;30.20;41.30
12901;DHT22;6518;50.930;5.344;2023-06-10T12:53:19;30.20;41.30
12901;DHT22;6518;50.930;5.344;2023-06-10T12:55:46;30.20;40.80
12901;DHT22;6518;50.930;5.344;2023-06-10T12:58:13;30.20;39.90
12901;DHT22;6518;50.930;5.344;2023-06-10T13:00:41;30.20;40.40
12901;DHT22;6518;50.930;5.344;2023-06-10T13:03:09;30.20;41.20
12901;DHT22;6518;50.930;5.344;2023-06-10T13:05:36;30.30;41.10
12901;DHT22;6518;50.930;5.344;2023-06-10T13:08:05;30.30;41.60
12901;DHT22;6518;50.930;5.344;2023-06-10T13:10:34;30.30;40.90
12901;DHT22;6518;50.930;5.344;2023-06-10T13:13:01;30.30;40.20
12901;DHT22;6518;50.930;5.344;2023-06-10T13:15:28;30.30;39.80
12901;DHT22;6518;50.930;5.344;2023-06-10T13:17:55;30.40;40.20
12901;DHT22;6518;50.930;5.344;2023-06-10T13:20:22;30.40;40.70
12901;DHT22;6518;50.930;5.344;2023-06-10T13:22:48;30.40;41.20
12901;DHT22;6518;50.930;5.344;2023-06-10T13:25:15;30.40;41.20
12901;DHT22;6518;50.930;5.344;2023-06-10T13:27:44;30.40;40.70
12901;DHT22;6518;50.930;5.344;2023-06-10T13:30:11;30.50;40.80
12901;DHT22;6518;50.930;5.344;2023-06-10T13:32:38;30.50;41.20
12901;DHT22;6518;50.930;5.344;2023-06-10T13:35:05;30.50;40.90
12901;DHT22;6518;50.930;5.344;2023-06-10T13:37:33;30.60;40.00
12901;DHT22;6518;50.930;5.344;2023-06-10T13:40:00;30.70;39.90
12901;DHT22;6518;50.930;5.344;2023-06-10T13:42:28;30.70;40.00
12901;DHT22;6518;50.930;5.344;2023-06-10T13:44:56;30.80;39.50
12901;DHT22;6518;50.930;5.344;2023-06-10T13:47:23;30.80;39.60
12901;DHT22;6518;50.930;5.344;2023-06-10T13:49:50;30.80;40.20
12901;DHT22;6518;50.930;5.344;2023-06-10T13:52:16;30.80;40.60
12901;DHT22;6518;50.930;5.344;2023-06-10T13:54:43;30.90;40.80
12901;DHT22;6518;50.930;5.344;2023-06-10T13:57:10;30.90;40.20
12901;DHT22;6518;50.930;5.344;2023-06-10T13:59:37;30.90;40.40
12901;DHT22;6518;50.930;5.344;2023-06-10T14:02:06;30.90;40.10
12901;DHT22;6518;50.930;5.344;2023-06-10T14:04:33;30.90;40.10
12901;DHT22;6518;50.930;5.344;2023-06-10T14:06:59;30.90;40.30
12901;DHT22;6518;50.930;5.344;2023-06-10T14:09:26;31.00;39.00
12901;DHT22;6518;50.930;5.344;2023-06-10T14:11:53;31.10;38.60
12901;DHT22;6518;50.930;5.344;2023-06-10T14:14:20;31.10;38.50
12901;DHT22;6518;50.930;5.344;2023-06-10T14:16:48;31.10;38.80
12901;DHT22;6518;50.930;5.344;2023-06-10T14:19:16;31.20;38.10
12901;DHT22;6518;50.930;5.344;2023-06-10T14:21:43;31.20;38.00
12901;DHT22;6518;50.930;5.344;2023-06-10T14:24:09;31.30;38.20
12901;DHT22;6518;50.930;5.344;2023-06-10T14:26:36;31.30;38.30
12901;DHT22;6518;50.930;5.344;2023-06-10T14:29:03;31.30;38.30
12901;DHT22;6518;50.930;5.344;2023-06-10T14:31:31;31.30;38.50
12901;DHT22;6518;50.930;5.344;2023-06-10T14:33:59;31.30;38.80
12901;DHT22;6518;50.930;5.344;2023-06-10T14:36:27;31.30;38.80
12901;DHT22;6518;50.930;5.344;2023-06-10T14:38:54;31.30;38.90
12901;DHT22;6518;50.930;5.344;2023-06-10T14:41:22;31.30;39.20
12901;DHT22;6518;50.930;5.344;2023-06-10T14:43:49;31.30;39.30
12901;DHT22;6518;50.930;5.344;2023-06-10T14:46:16;31.30;38.80
12901;DHT22;6518;50.930;5.344;2023-06-10T14:48:43;31.30;38.70
12901;DHT22;6518;50.930;5.344;2023-06-10T14:51:10;31.30;38.80
12901;DHT22;6518;50.930;5.344;2023-06-10T14:53:38;31.30;38.80
12901;DHT22;6518;50.930;5.344;2023-06-10T14:56:05;31.30;38.80
12901;DHT22;6518;50.930;5.344;2023-06-10T14:58:32;31.40;39.00
12901;DHT22;6518;50.930;5.344;2023-06-10T15:00:59;31.50;39.20
12901;DHT22;6518;50.930;5.344;2023-06-10T15:03:25;31.50;39.10
12901;DHT22;6518;50.930;5.344;2023-06-10T15:05:52;31.60;38.80
12901;DHT22;6518;50.930;5.344;2023-06-10T15:08:19;31.60;38.70
12901;DHT22;6518;50.930;5.344;2023-06-10T15:10:47;31.70;38.80
12901;DHT22;6518;50.930;5.344;2023-06-10T15:13:14;31.70;38.70
12901;DHT22;6518;50.930;5.344;2023-06-10T15:15:41;31.70;38.80
12901;DHT22;6518;50.930;5.344;2023-06-10T15:18:08;31.80;39.60
12901;DHT22;6518;50.930;5.344;2023-06-10T15:20:35;31.80;40.70
12901;DHT22;6518;50.930;5.344;2023-06-10T15:23:02;31.80;41.20
12901;DHT22;6518;50.930;5.344;2023-06-10T15:25:29;31.60;41.30
12901;DHT22;6518;50.930;5.344;2023-06-10T15:27:57;31.50;41.70
12901;DHT22;6518;50.930;5.344;2023-06-10T15:30:24;31.50;41.50
12901;DHT22;6518;50.930;5.344;2023-06-10T15:32:51;31.40;41.20
12901;DHT22;6518;50.930;5.344;2023-06-10T15:35:18;31.40;41.10
12901;DHT22;6518;50.930;5.344;2023-06-10T15:37:45;31.40;41.20
12901;DHT22;6518;50.930;5.344;2023-06-10T15:40:12;31.40;41.30
12901;DHT22;6518;50.930;5.344;2023-06-10T15:42:39;31.40;41.30
12901;DHT22;6518;50.930;5.344;2023-06-10T15:45:08;31.40;41.50
12901;DHT22;6518;50.930;5.344;2023-06-10T15:47:35;31.30;41.60
12901;DHT22;6518;50.930;5.344;2023-06-10T15:50:02;31.30;41.60